This is the latest recevied weather packets stored in our database for station/object W8CWV-13. If no packets are shown the sender has not sent any weather packets the latest 10 day(s).
| Time | Temp. | Humidity | Pressure | Rain* | Wind** | Luminosity | Snow |
|---|---|---|---|---|---|---|---|
| 1777918635 | 28.89° C | 100% | 1017.5 hPa | - | - | - | - |
| 1777918061 | 28.33° C | 100% | 1017.7 hPa | - | - | - | - |
| 1777917491 | 28.89° C | 100% | 1017.8 hPa | - | - | - | - |
| 1777916912 | 28.89° C | 100% | 1017.9 hPa | - | - | - | - |
| 1777916344 | 27.78° C | 100% | 1018.3 hPa | - | - | - | - |
| 1777915767 | 26.67° C | 100% | 1018.4 hPa | - | - | - | - |
| 1777915195 | 28.33° C | 100% | 1018.3 hPa | - | - | - | - |
| 1777914615 | 27.22° C | 100% | 1018.6 hPa | - | - | - | - |
| 1777914045 | 26.11° C | 100% | 1018.9 hPa | - | - | - | - |
| 1777913473 | 26.11° C | 100% | 1019 hPa | - | - | - | - |
| 1777912902 | 27.22° C | 100% | 1019.1 hPa | - | - | - | - |
| 1777912332 | 28.33° C | 100% | 1018.9 hPa | - | - | - | - |
| 1777911757 | 28.33° C | 100% | 1019.2 hPa | - | - | - | - |
| 1777911184 | 28.89° C | 100% | 1019.2 hPa | - | - | - | - |
| 1777910610 | 27.78° C | 100% | 1019.5 hPa | - | - | - | - |
| 1777910037 | 28.33° C | 100% | 1019.5 hPa | - | - | - | - |
| 1777909462 | 27.78° C | 100% | 1019.8 hPa | - | - | - | - |
| 1777908889 | 27.22° C | 100% | 1019.8 hPa | - | - | - | - |
| 1777908314 | 26.67° C | 100% | 1020 hPa | - | - | - | - |
| 1777907742 | 27.22° C | 100% | 1020.3 hPa | - | - | - | - |
| 1777907169 | 26.67° C | 100% | 1020.3 hPa | - | - | - | - |
| 1777906602 | 26.11° C | 100% | 1020.5 hPa | - | - | - | - |
| 1777906026 | 26.67° C | 100% | 1020.3 hPa | - | - | - | - |
| 1777905444 | 26.11° C | 100% | 1020.5 hPa | - | - | - | - |
| 1777904871 | 26.67° C | 100% | 1020.4 hPa | - | - | - | - |
* Rain since midnight (hover to see other rain measurements)
** Current wind speed in m/s (hover to see current wind gust speed)